createdAt,value
2022-11-26T00:01:22.049Z,10.80
2022-11-26T00:02:54.560Z,12.57
2022-11-26T00:04:27.582Z,13.40
2022-11-26T00:05:59.225Z,11.20
2022-11-26T00:07:30.963Z,10.30
2022-11-26T00:09:03.462Z,10.05
2022-11-26T00:10:35.626Z,9.40
2022-11-26T00:12:15.668Z,10.73
2022-11-26T00:13:47.271Z,12.27
2022-11-26T00:15:20.530Z,9.93
2022-11-26T00:16:52.193Z,10.52
2022-11-26T00:18:26.447Z,13.75
2022-11-26T00:19:59.445Z,11.38
2022-11-26T00:21:31.006Z,10.93
2022-11-26T00:23:03.272Z,10.38
2022-11-26T00:24:35.006Z,10.52
2022-11-26T00:26:06.766Z,11.68
2022-11-26T00:27:38.352Z,13.75
2022-11-26T00:29:09.989Z,13.93
2022-11-26T00:30:41.656Z,11.48
2022-11-26T00:32:15.178Z,12.25
2022-11-26T00:33:46.879Z,11.95
2022-11-26T00:35:19.958Z,10.68
2022-11-26T00:36:51.587Z,12.38
2022-11-26T00:38:23.216Z,11.02
2022-11-26T00:39:54.915Z,12.25
2022-11-26T00:41:29.186Z,21.88
2022-11-26T00:43:02.037Z,15.27
2022-11-26T00:44:33.838Z,18.17
2022-11-26T00:46:05.762Z,18.60
2022-11-26T00:47:37.467Z,15.27
2022-11-26T00:49:09.080Z,15.98
2022-11-26T00:50:42.879Z,18.52
2022-11-26T00:52:23.635Z,17.45
2022-11-26T00:53:56.490Z,19.38
2022-11-26T00:55:29.480Z,16.83
2022-11-26T00:57:01.087Z,18.10
2022-11-26T00:58:32.683Z,15.93
2022-11-26T01:00:14.576Z,14.80
2022-11-26T01:01:46.404Z,19.65
2022-11-26T01:03:18.107Z,16.33
2022-11-26T01:04:49.736Z,16.08
2022-11-26T01:06:24.085Z,15.73
2022-11-26T01:07:55.733Z,14.75
2022-11-26T01:09:27.378Z,14.13
2022-11-26T01:10:59.098Z,15.02
2022-11-26T01:12:30.789Z,12.75
2022-11-26T01:14:02.447Z,15.23
2022-11-26T01:15:34.065Z,15.52
2022-11-26T01:17:05.668Z,15.98
2022-11-26T01:18:37.287Z,17.13
2022-11-26T01:20:22.732Z,14.10
2022-11-26T01:21:58.093Z,15.98
2022-11-26T01:23:29.710Z,16.23
2022-11-26T01:25:01.375Z,13.27
2022-11-26T01:26:34.216Z,13.30
2022-11-26T01:28:06.036Z,14.38
2022-11-26T01:29:37.675Z,13.80
2022-11-26T01:31:13.849Z,12.57
2022-11-26T01:32:45.559Z,13.48
2022-11-26T01:34:17.153Z,14.70
2022-11-26T01:35:48.738Z,12.45
2022-11-26T01:37:21.665Z,13.43
2022-11-26T01:38:53.321Z,13.05
2022-11-26T01:41:09.752Z,12.07
2022-11-26T01:42:42.469Z,11.25
2022-11-26T01:44:17.190Z,11.55
2022-11-26T01:45:48.832Z,13.73
2022-11-26T01:47:22.102Z,12.38
2022-11-26T01:48:53.790Z,12.57
2022-11-26T01:50:59.497Z,13.00
2022-11-26T01:52:32.433Z,12.70
2022-11-26T01:54:04.149Z,11.23
2022-11-26T01:55:37.163Z,11.32
2022-11-26T01:57:09.906Z,11.65
2022-11-26T01:58:43.461Z,12.32
2022-11-26T02:00:16.105Z,13.27
2022-11-26T02:01:48.067Z,11.25
2022-11-26T02:03:19.772Z,11.85
2022-11-26T02:04:54.736Z,11.75
2022-11-26T02:06:28.120Z,11.00
2022-11-26T02:08:01.117Z,11.25
2022-11-26T02:09:32.902Z,11.27
2022-11-26T02:11:14.652Z,14.77
2022-11-26T02:12:46.528Z,12.13
2022-11-26T02:14:19.078Z,11.10
2022-11-26T02:15:54.796Z,11.55
2022-11-26T02:17:27.490Z,10.75
2022-11-26T02:19:06.292Z,11.43
2022-11-26T02:20:50.926Z,12.02
2022-11-26T02:22:46.318Z,14.68
2022-11-26T02:24:37.476Z,12.18
2022-11-26T02:26:32.034Z,11.68
2022-11-26T02:28:18.072Z,10.25
2022-11-26T02:30:10.233Z,10.82
2022-11-26T02:31:44.172Z,12.35
2022-11-26T02:33:17.088Z,11.63
2022-11-26T02:34:50.999Z,11.32
2022-11-26T02:36:24.882Z,11.68
2022-11-26T02:37:58.587Z,11.93
2022-11-26T02:39:30.462Z,10.88
2022-11-26T02:41:02.301Z,10.57
2022-11-26T02:42:34.457Z,10.77
2022-11-26T02:44:06.055Z,10.45
2022-11-26T02:45:39.368Z,11.52
2022-11-26T02:47:11.703Z,11.75
2022-11-26T02:48:44.880Z,11.85
2022-11-26T02:50:17.952Z,12.82
2022-11-26T02:51:51.306Z,12.20
2022-11-26T02:53:23.567Z,12.40
2022-11-26T02:54:55.181Z,12.68
2022-11-26T02:56:27.053Z,13.30
2022-11-26T02:57:59.459Z,12.82
2022-11-26T02:59:31.063Z,18.55
2022-11-26T03:01:06.350Z,12.70
2022-11-26T03:02:40.634Z,13.02
2022-11-26T03:04:15.238Z,12.45
2022-11-26T03:05:46.844Z,13.43
2022-11-26T03:07:18.562Z,14.05
2022-11-26T03:08:50.236Z,14.65
2022-11-26T03:10:25.312Z,12.90
2022-11-26T03:11:57.001Z,13.63
2022-11-26T03:13:28.608Z,12.70
2022-11-26T03:15:00.218Z,13.50
2022-11-26T03:16:33.191Z,12.30
2022-11-26T03:18:04.888Z,12.88
2022-11-26T03:19:36.536Z,11.38
2022-11-26T03:21:08.142Z,12.00
2022-11-26T03:22:39.724Z,13.90
2022-11-26T03:24:11.312Z,11.55
2022-11-26T03:25:42.925Z,12.60
2022-11-26T03:27:14.530Z,15.95
2022-11-26T03:28:46.131Z,17.85
2022-11-26T03:30:18.052Z,15.20
2022-11-26T03:31:51.177Z,24.38
2022-11-26T03:33:22.800Z,20.00
2022-11-26T03:34:54.437Z,21.25
2022-11-26T03:36:26.107Z,26.17
2022-11-26T03:37:57.758Z,20.35
2022-11-26T03:39:29.409Z,24.30
2022-11-26T03:41:02.259Z,18.52
2022-11-26T03:42:33.866Z,26.02
2022-11-26T03:44:05.503Z,20.27
2022-11-26T03:45:37.131Z,21.58
2022-11-26T03:47:10.152Z,32.35
2022-11-26T03:48:41.774Z,29.13
2022-11-26T03:50:13.381Z,25.40
2022-11-26T03:51:45.017Z,33.38
2022-11-26T03:53:16.646Z,38.40
2022-11-26T03:54:48.262Z,21.52
2022-11-26T03:56:19.847Z,30.75
2022-11-26T03:57:51.489Z,22.63
2022-11-26T03:59:23.081Z,25.70
2022-11-26T04:00:54.640Z,37.40
2022-11-26T04:02:28.190Z,26.98
2022-11-26T04:03:59.810Z,20.92
2022-11-26T04:05:31.570Z,29.42
2022-11-26T04:07:03.162Z,24.38
2022-11-26T04:08:34.818Z,39.70
2022-11-26T04:10:07.927Z,29.13
2022-11-26T04:11:39.510Z,30.33
2022-11-26T04:13:11.108Z,32.10
2022-11-26T04:14:42.719Z,30.10
2022-11-26T04:16:14.348Z,24.27
2022-11-26T04:17:47.345Z,35.33
2022-11-26T04:19:18.948Z,40.38
2022-11-26T04:20:53.224Z,27.73
2022-11-26T04:22:25.244Z,22.17
2022-11-26T04:23:56.870Z,31.60
2022-11-26T04:25:28.526Z,32.80
2022-11-26T04:27:00.130Z,37.45
2022-11-26T04:28:31.809Z,24.77
2022-11-26T04:30:04.175Z,44.30
2022-11-26T04:31:35.831Z,39.50
2022-11-26T04:33:08.813Z,34.10
2022-11-26T04:34:40.687Z,37.55
2022-11-26T04:36:12.476Z,31.58
2022-11-26T04:37:44.076Z,34.78
2022-11-26T04:39:15.715Z,41.60
2022-11-26T04:40:47.462Z,30.55
2022-11-26T04:42:19.075Z,28.98
2022-11-26T04:43:50.668Z,25.52
2022-11-26T04:45:22.307Z,35.63
2022-11-26T04:46:53.916Z,23.80
2022-11-26T04:48:26.861Z,27.27
2022-11-26T04:49:58.475Z,34.47
2022-11-26T04:51:30.092Z,36.33
2022-11-26T04:53:01.709Z,25.33
2022-11-26T04:54:33.726Z,19.52
2022-11-26T04:56:05.605Z,19.40
2022-11-26T04:57:37.197Z,20.50
2022-11-26T04:59:08.829Z,20.27
2022-11-26T05:00:40.446Z,15.88
2022-11-26T05:02:12.077Z,15.52
2022-11-26T05:03:45.083Z,18.10
2022-11-26T05:05:16.706Z,17.17
2022-11-26T05:06:48.297Z,16.48
2022-11-26T05:08:19.885Z,15.95
2022-11-26T05:09:51.537Z,16.02
2022-11-26T05:11:23.154Z,14.05
2022-11-26T05:12:54.783Z,12.52
2022-11-26T05:14:26.388Z,13.73
2022-11-26T05:15:58.002Z,13.48
2022-11-26T05:17:29.640Z,14.88
2022-11-26T05:19:02.640Z,16.10
2022-11-26T05:20:34.242Z,13.70
2022-11-26T05:22:05.859Z,15.13
2022-11-26T05:23:37.453Z,14.27
2022-11-26T05:25:09.803Z,19.02
2022-11-26T05:26:41.413Z,25.10
2022-11-26T05:28:13.015Z,16.98
2022-11-26T05:29:44.637Z,15.77
2022-11-26T05:31:16.288Z,17.88
2022-11-26T05:32:47.917Z,16.77
2022-11-26T05:34:21.095Z,17.90
2022-11-26T05:35:52.691Z,17.75
2022-11-26T05:37:24.295Z,17.48
2022-11-26T05:38:55.938Z,17.10
2022-11-26T05:40:27.532Z,13.68
2022-11-26T05:41:59.120Z,14.68
2022-11-26T05:43:30.705Z,14.98
2022-11-26T05:45:02.317Z,15.52
2022-11-26T05:46:41.421Z,14.93
2022-11-26T05:48:13.027Z,13.82
2022-11-26T05:49:46.004Z,14.07
2022-11-26T05:51:17.618Z,19.33
2022-11-26T05:52:49.241Z,15.75
2022-11-26T05:54:21.079Z,16.45
2022-11-26T05:55:52.676Z,26.45
2022-11-26T05:57:24.328Z,18.13
2022-11-26T05:58:56.216Z,16.17
2022-11-26T06:00:27.811Z,18.00
2022-11-26T06:01:59.480Z,26.52
2022-11-26T06:03:31.183Z,27.23
2022-11-26T06:05:04.687Z,47.00
2022-11-26T06:06:36.308Z,60.25
2022-11-26T06:08:07.901Z,41.90
2022-11-26T06:09:39.826Z,37.78
2022-11-26T06:11:12.458Z,30.40
2022-11-26T06:12:44.088Z,39.50
2022-11-26T06:14:15.738Z,28.60
2022-11-26T06:15:47.368Z,26.73
2022-11-26T06:17:19.039Z,27.02
2022-11-26T06:18:50.950Z,28.85
2022-11-26T06:20:24.024Z,26.75
2022-11-26T06:21:55.622Z,39.00
2022-11-26T06:23:27.212Z,35.45
2022-11-26T06:24:58.829Z,30.05
2022-11-26T06:26:30.476Z,36.42
2022-11-26T06:28:02.133Z,46.95
2022-11-26T06:29:33.878Z,43.35
2022-11-26T06:31:05.848Z,50.65
2022-11-26T06:32:37.517Z,44.13
2022-11-26T06:34:09.143Z,42.90
2022-11-26T06:35:42.122Z,30.23
2022-11-26T06:37:13.746Z,44.78
2022-11-26T06:38:45.432Z,30.42
2022-11-26T06:40:17.995Z,44.40
2022-11-26T06:41:49.693Z,34.78
2022-11-26T06:43:21.327Z,30.35
2022-11-26T06:44:57.022Z,43.78
2022-11-26T06:46:31.162Z,21.88
2022-11-26T06:48:03.062Z,26.23
2022-11-26T06:49:34.693Z,28.98
2022-11-26T06:51:08.373Z,30.10
2022-11-26T06:52:40.051Z,31.20
2022-11-26T06:54:11.645Z,33.85
2022-11-26T06:55:43.228Z,27.63
2022-11-26T06:57:14.834Z,44.90
2022-11-26T06:58:46.760Z,44.90
2022-11-26T07:00:18.978Z,43.38
2022-11-26T07:01:50.704Z,41.63
2022-11-26T07:03:24.829Z,40.85
2022-11-26T07:04:57.857Z,41.35
2022-11-26T07:06:31.931Z,35.85
2022-11-26T07:08:03.806Z,36.28
2022-11-26T07:09:35.437Z,42.58
2022-11-26T07:11:07.043Z,28.70
2022-11-26T07:12:38.671Z,25.15
2022-11-26T07:14:10.292Z,28.35
2022-11-26T07:15:41.964Z,26.23
2022-11-26T07:17:13.605Z,32.40
2022-11-26T07:18:47.917Z,31.92
2022-11-26T07:20:20.029Z,31.48
2022-11-26T07:21:53.059Z,19.35
2022-11-26T07:23:24.693Z,27.77
2022-11-26T07:24:56.342Z,42.38
2022-11-26T07:26:27.909Z,24.35
2022-11-26T07:27:59.515Z,23.38
2022-11-26T07:29:31.180Z,41.50
2022-11-26T07:31:03.251Z,24.33
2022-11-26T07:32:34.873Z,36.33
2022-11-26T07:34:06.504Z,30.63
2022-11-26T07:35:38.101Z,39.67
2022-11-26T07:37:11.048Z,30.67
2022-11-26T07:38:42.680Z,31.92
2022-11-26T07:40:15.121Z,26.45
2022-11-26T07:41:46.744Z,29.00
2022-11-26T07:43:18.315Z,29.05
2022-11-26T07:44:50.720Z,44.05
2022-11-26T07:46:23.368Z,35.40
2022-11-26T07:47:55.149Z,36.03
2022-11-26T07:49:26.793Z,26.73
2022-11-26T07:50:58.421Z,27.92
2022-11-26T07:52:31.354Z,33.72
2022-11-26T07:54:04.022Z,28.40
2022-11-26T07:55:37.569Z,21.73
2022-11-26T07:57:09.722Z,87.07
2022-11-26T07:58:41.359Z,29.30
2022-11-26T08:00:14.036Z,29.92
2022-11-26T08:01:45.710Z,34.53
2022-11-26T08:03:17.329Z,34.47
2022-11-26T08:04:48.974Z,53.30
2022-11-26T08:06:21.947Z,43.80
2022-11-26T08:07:54.957Z,28.40
2022-11-26T08:09:26.625Z,32.95
2022-11-26T08:10:58.200Z,47.50
2022-11-26T08:12:29.798Z,37.47
2022-11-26T08:14:02.182Z,29.20
2022-11-26T08:15:35.437Z,32.05
2022-11-26T08:17:07.045Z,46.75
2022-11-26T08:18:38.662Z,34.17
2022-11-26T08:20:11.258Z,31.73
2022-11-26T08:21:42.878Z,36.03
2022-11-26T08:23:15.817Z,38.15
2022-11-26T08:24:47.409Z,36.08
2022-11-26T08:26:27.576Z,30.42
2022-11-26T08:28:02.520Z,46.33
2022-11-26T08:29:36.044Z,46.03
2022-11-26T08:31:08.851Z,44.80
2022-11-26T08:32:40.469Z,44.40
2022-11-26T08:34:13.337Z,28.88
2022-11-26T08:36:06.061Z,39.88
2022-11-26T08:37:36.508Z,35.25
2022-11-26T08:39:10.203Z,31.42
2022-11-26T08:40:41.820Z,35.67
2022-11-26T08:42:13.491Z,30.10
2022-11-26T08:44:06.287Z,34.03
2022-11-26T08:45:36.810Z,41.47
2022-11-26T08:47:08.746Z,27.63
2022-11-26T08:48:40.478Z,40.35
2022-11-26T08:50:12.434Z,40.40
2022-11-26T08:51:44.221Z,58.25
2022-11-26T08:53:15.963Z,36.25
2022-11-26T08:54:49.274Z,54.78
2022-11-26T08:56:21.481Z,30.73
2022-11-26T08:57:53.152Z,31.27
2022-11-26T08:59:25.332Z,25.65
2022-11-26T09:00:57.009Z,32.65
2022-11-26T09:02:28.689Z,29.58
2022-11-26T09:04:01.535Z,36.72
2022-11-26T09:05:33.149Z,26.58
2022-11-26T09:07:04.788Z,34.00
2022-11-26T09:08:56.344Z,34.85
2022-11-26T09:10:29.362Z,33.95
2022-11-26T09:12:02.037Z,38.25
2022-11-26T09:13:33.630Z,28.58
2022-11-26T09:15:06.004Z,37.10
2022-11-26T09:16:37.832Z,24.75
2022-11-26T09:18:09.467Z,27.50
2022-11-26T09:19:41.184Z,23.17
2022-11-26T09:21:12.871Z,29.67
2022-11-26T09:22:44.494Z,42.70
2022-11-26T09:24:17.155Z,39.85
2022-11-26T09:25:50.864Z,52.38
2022-11-26T09:27:22.500Z,31.40
2022-11-26T09:28:54.121Z,32.75
2022-11-26T09:30:25.815Z,53.95
2022-11-26T09:33:49.026Z,40.08
2022-11-26T09:35:20.718Z,44.22
2022-11-26T09:36:52.367Z,47.30
2022-11-26T09:38:23.992Z,39.75
2022-11-26T09:39:55.609Z,43.08
2022-11-26T09:41:35.307Z,32.40
2022-11-26T09:43:11.210Z,33.70
2022-11-26T09:45:01.792Z,37.88
2022-11-26T09:46:45.465Z,34.88
2022-11-26T09:48:18.445Z,33.55
2022-11-26T09:49:55.391Z,35.33
2022-11-26T09:51:26.997Z,31.45
2022-11-26T09:53:00.788Z,32.10
2022-11-26T09:54:32.420Z,28.25
2022-11-26T09:56:04.617Z,29.70
2022-11-26T09:57:41.092Z,42.75
2022-11-26T09:59:13.640Z,30.02
2022-11-26T10:00:46.175Z,34.95
2022-11-26T10:02:17.880Z,28.38
2022-11-26T10:03:49.524Z,30.83
2022-11-26T10:05:21.927Z,29.77
2022-11-26T10:06:57.394Z,25.05
2022-11-26T10:08:54.714Z,29.30
2022-11-26T10:10:27.265Z,39.78
2022-11-26T10:12:02.332Z,29.85
2022-11-26T10:13:41.350Z,26.00
2022-11-26T10:15:15.092Z,32.53
2022-11-26T10:16:50.139Z,27.35
2022-11-26T10:18:24.903Z,26.33
2022-11-26T10:20:12.850Z,26.58
2022-11-26T10:21:58.804Z,22.25
2022-11-26T10:23:32.504Z,20.10
2022-11-26T10:25:08.884Z,21.70
2022-11-26T10:26:40.750Z,36.63
2022-11-26T10:28:16.564Z,22.45
2022-11-26T10:29:50.984Z,23.85
2022-11-26T10:31:23.798Z,22.92
2022-11-26T10:32:55.957Z,29.33
2022-11-26T10:34:34.577Z,23.88
2022-11-26T10:36:10.230Z,21.13
2022-11-26T10:37:41.897Z,21.13
2022-11-26T10:39:15.010Z,21.30
2022-11-26T10:40:46.837Z,21.77
2022-11-26T10:42:20.358Z,21.48
2022-11-26T10:43:52.101Z,23.77
2022-11-26T10:45:26.527Z,19.58
2022-11-26T10:46:58.604Z,23.15
2022-11-26T10:48:30.901Z,21.08
2022-11-26T10:50:45.396Z,19.90
2022-11-26T10:52:07.835Z,18.77
2022-11-26T10:53:50.092Z,21.27
2022-11-26T10:55:24.901Z,17.92
2022-11-26T10:56:56.735Z,18.13
2022-11-26T10:58:29.015Z,16.20
2022-11-26T11:00:00.703Z,16.70
2022-11-26T11:01:36.430Z,16.40
2022-11-26T11:03:15.262Z,16.75
2022-11-26T11:04:48.956Z,15.77
2022-11-26T11:06:35.199Z,16.42
2022-11-26T11:08:12.277Z,17.33
2022-11-26T11:09:43.934Z,18.38
2022-11-26T11:11:18.583Z,18.33
2022-11-26T11:12:50.992Z,15.85
2022-11-26T11:14:28.147Z,15.13
2022-11-26T11:16:00.338Z,19.30
2022-11-26T11:17:34.648Z,17.27
2022-11-26T11:19:11.277Z,16.90
2022-11-26T11:20:43.287Z,15.23
2022-11-26T11:22:18.199Z,17.58
2022-11-26T11:24:08.253Z,17.02
2022-11-26T11:25:41.564Z,16.67
2022-11-26T11:27:22.762Z,16.92
2022-11-26T11:28:55.234Z,16.83
2022-11-26T11:30:27.930Z,17.13
2022-11-26T11:32:00.328Z,19.00
2022-11-26T11:33:33.395Z,16.90
2022-11-26T11:35:24.481Z,18.27
2022-11-26T11:37:00.198Z,17.55
2022-11-26T11:38:32.802Z,16.10
2022-11-26T11:40:05.964Z,17.65
2022-11-26T11:41:39.525Z,15.98
2022-11-26T11:43:15.189Z,15.57
2022-11-26T11:44:47.316Z,18.25
2022-11-26T11:46:31.778Z,17.23
2022-11-26T11:48:09.506Z,17.67
2022-11-26T11:49:49.159Z,18.00
2022-11-26T11:51:24.953Z,16.20
2022-11-26T11:53:03.149Z,14.73
2022-11-26T11:54:42.127Z,14.43
2022-11-26T11:56:21.085Z,16.75
2022-11-26T11:58:02.664Z,10.63
2022-11-26T11:59:58.246Z,12.38
2022-11-26T12:01:38.167Z,13.07
2022-11-26T12:03:21.829Z,16.25
2022-11-26T12:05:03.681Z,17.48
2022-11-26T12:06:40.292Z,13.63
2022-11-26T12:08:21.378Z,15.38
2022-11-26T12:09:55.683Z,15.63
2022-11-26T12:11:34.978Z,12.88
2022-11-26T12:13:06.613Z,13.88
2022-11-26T12:14:39.321Z,12.43
2022-11-26T12:16:11.125Z,12.45
2022-11-26T12:17:44.791Z,11.85
2022-11-26T12:19:19.055Z,10.07
2022-11-26T12:20:53.926Z,10.93
2022-11-26T12:22:26.905Z,9.48
2022-11-26T12:24:00.664Z,8.68
2022-11-26T12:25:36.705Z,8.30
2022-11-26T12:27:21.791Z,12.20
2022-11-26T12:28:56.006Z,9.88
2022-11-26T12:30:29.808Z,9.35
2022-11-26T12:32:03.380Z,6.97
2022-11-26T12:33:38.411Z,7.63
2022-11-26T12:35:12.372Z,10.98
2022-11-26T12:36:46.949Z,8.85
2022-11-26T12:38:22.317Z,11.18
2022-11-26T12:39:55.758Z,11.35
2022-11-26T12:41:29.602Z,11.82
2022-11-26T12:43:03.811Z,11.77
2022-11-26T12:44:37.731Z,11.55
2022-11-26T12:46:14.138Z,11.80
2022-11-26T12:47:49.782Z,12.98
2022-11-26T12:49:24.110Z,12.35
2022-11-26T12:50:56.986Z,11.38
2022-11-26T12:52:32.545Z,14.90
2022-11-26T12:54:10.131Z,18.20
2022-11-26T12:55:43.876Z,17.30
2022-11-26T12:57:18.086Z,14.48
2022-11-26T12:58:57.736Z,16.13
2022-11-26T13:00:35.771Z,15.68
2022-11-26T13:02:17.538Z,13.65
2022-11-26T13:03:49.242Z,13.98
2022-11-26T13:05:27.062Z,17.05
2022-11-26T13:07:09.724Z,14.82
2022-11-26T13:08:45.473Z,12.65
2022-11-26T13:10:21.367Z,12.93
2022-11-26T13:11:56.549Z,16.15
2022-11-26T13:13:33.700Z,17.65
2022-11-26T13:15:09.767Z,14.50
2022-11-26T13:16:44.783Z,14.25
2022-11-26T13:18:27.444Z,16.63
2022-11-26T13:20:02.783Z,14.35
2022-11-26T13:21:41.090Z,13.85
2022-11-26T13:23:28.819Z,13.18
2022-11-26T13:25:11.514Z,15.27
2022-11-26T13:26:53.941Z,16.70
2022-11-26T13:28:32.878Z,13.07
2022-11-26T13:30:17.602Z,14.10
2022-11-26T13:31:57.399Z,12.18
2022-11-26T13:33:40.912Z,13.43
2022-11-26T13:35:20.843Z,11.35
2022-11-26T13:37:01.761Z,13.90
2022-11-26T13:38:38.719Z,12.73
2022-11-26T13:40:46.324Z,12.95
2022-11-26T13:42:29.248Z,11.52
2022-11-26T13:44:18.704Z,12.05
2022-11-26T13:46:10.659Z,13.50
2022-11-26T13:47:43.436Z,10.93
2022-11-26T13:49:16.337Z,15.60
2022-11-26T13:50:48.995Z,13.20
2022-11-26T13:52:22.691Z,13.85
2022-11-26T13:53:56.378Z,10.57
2022-11-26T13:55:29.393Z,11.18
2022-11-26T13:57:02.677Z,10.70
2022-11-26T13:58:36.782Z,10.70
2022-11-26T14:00:09.740Z,10.65
2022-11-26T14:01:41.711Z,10.32
2022-11-26T14:03:42.481Z,11.07
2022-11-26T14:05:14.638Z,10.15
2022-11-26T14:07:19.385Z,8.55
2022-11-26T14:08:51.664Z,10.30
2022-11-26T14:10:42.341Z,8.95
2022-11-26T14:12:14.032Z,8.40
2022-11-26T14:13:47.032Z,8.88
2022-11-26T14:15:52.506Z,9.20
2022-11-26T14:17:24.934Z,10.38
2022-11-26T14:18:59.017Z,9.68
2022-11-26T14:20:30.665Z,10.88
2022-11-26T14:22:03.742Z,9.57
2022-11-26T14:23:44.561Z,11.68
2022-11-26T14:25:16.479Z,9.07
2022-11-26T14:26:48.088Z,8.20
2022-11-26T14:28:21.946Z,10.93
2022-11-26T14:29:58.777Z,10.23
2022-11-26T14:31:33.200Z,11.65
2022-11-26T14:33:11.337Z,11.68
2022-11-26T14:34:45.418Z,11.68
2022-11-26T14:36:21.423Z,11.65
2022-11-26T14:37:53.666Z,8.25
2022-11-26T14:39:25.544Z,11.10
2022-11-26T14:40:58.984Z,9.10
2022-11-26T14:42:30.595Z,9.18
2022-11-26T14:44:06.039Z,9.50
2022-11-26T14:45:39.090Z,10.82
2022-11-26T14:47:14.864Z,9.88
2022-11-26T14:48:47.219Z,9.45
2022-11-26T14:50:20.014Z,10.85
2022-11-26T14:51:53.485Z,7.95
2022-11-26T14:53:26.418Z,10.35
2022-11-26T14:54:58.624Z,10.15
2022-11-26T14:56:30.803Z,12.02
2022-11-26T14:58:08.957Z,11.65
2022-11-26T14:59:54.982Z,12.38
2022-11-26T15:01:32.361Z,9.63
2022-11-26T15:03:04.389Z,8.50
2022-11-26T15:04:38.855Z,9.00
2022-11-26T15:06:23.958Z,9.48
2022-11-26T15:08:00.784Z,9.38
2022-11-26T15:09:32.395Z,11.95
2022-11-26T15:11:05.314Z,10.68
2022-11-26T15:12:37.098Z,6.85
2022-11-26T15:14:15.451Z,11.13
2022-11-26T15:15:50.445Z,9.80
2022-11-26T15:17:23.975Z,9.38
2022-11-26T15:18:55.731Z,7.68
2022-11-26T15:20:27.565Z,10.57
2022-11-26T15:22:00.163Z,8.40
2022-11-26T15:23:32.853Z,9.88
2022-11-26T15:25:05.044Z,9.52
2022-11-26T15:26:36.732Z,11.70
2022-11-26T15:28:16.429Z,11.40
2022-11-26T15:29:49.099Z,9.88
2022-11-26T15:31:20.875Z,12.18
2022-11-26T15:33:01.753Z,12.82
2022-11-26T15:34:33.494Z,10.45
2022-11-26T15:36:05.857Z,8.82
2022-11-26T15:37:37.571Z,8.10
2022-11-26T15:39:23.557Z,8.50
2022-11-26T15:40:58.366Z,9.20
2022-11-26T15:42:31.162Z,9.20
2022-11-26T15:44:02.846Z,10.57
2022-11-26T15:45:37.652Z,11.35
2022-11-26T15:47:12.841Z,8.18
2022-11-26T15:48:54.442Z,10.63
2022-11-26T15:50:28.904Z,17.17
2022-11-26T15:52:03.502Z,17.38
2022-11-26T15:53:36.205Z,12.52
2022-11-26T15:55:12.948Z,9.55
2022-11-26T15:56:45.619Z,10.15
2022-11-26T15:58:19.563Z,9.82
2022-11-26T15:59:54.020Z,8.40
2022-11-26T16:01:26.846Z,8.27
2022-11-26T16:02:58.924Z,11.30
2022-11-26T16:04:43.578Z,8.70
2022-11-26T16:06:29.647Z,8.48
2022-11-26T16:08:02.539Z,11.43
2022-11-26T16:09:34.511Z,11.52
2022-11-26T16:11:07.462Z,11.90
2022-11-26T16:12:44.387Z,9.50
2022-11-26T16:14:29.977Z,10.95
2022-11-26T16:16:05.514Z,15.13
2022-11-26T16:17:37.174Z,15.52
2022-11-26T16:19:14.026Z,16.98
2022-11-26T16:20:47.062Z,21.77
2022-11-26T16:22:20.850Z,22.25
2022-11-26T16:23:58.142Z,19.20
2022-11-26T16:25:30.627Z,17.42
2022-11-26T16:27:05.050Z,18.30
2022-11-26T16:28:36.670Z,9.20
2022-11-26T16:30:14.083Z,8.73
2022-11-26T16:31:45.781Z,8.63
2022-11-26T16:33:17.410Z,7.00
2022-11-26T16:34:49.064Z,11.18
2022-11-26T16:36:23.513Z,8.68
2022-11-26T16:37:55.264Z,10.85
2022-11-26T16:39:30.134Z,8.43
2022-11-26T16:41:02.277Z,7.88
2022-11-26T16:42:34.007Z,8.02
2022-11-26T16:44:05.639Z,7.88
2022-11-26T16:45:37.387Z,8.38
2022-11-26T16:47:12.967Z,8.43
2022-11-26T16:48:45.428Z,6.60
2022-11-26T16:50:18.231Z,10.30
2022-11-26T16:51:51.238Z,9.40
2022-11-26T16:53:22.931Z,6.05
2022-11-26T16:54:54.667Z,9.15
2022-11-26T16:56:28.211Z,11.85
2022-11-26T16:58:00.306Z,9.30
2022-11-26T16:59:31.973Z,7.90
2022-11-26T17:01:03.731Z,8.30
2022-11-26T17:02:35.851Z,7.68
2022-11-26T17:04:07.876Z,11.73
2022-11-26T17:05:39.695Z,8.63
2022-11-26T17:07:18.308Z,8.23
2022-11-26T17:08:50.378Z,15.23
2022-11-26T17:10:23.142Z,8.45
2022-11-26T17:11:54.909Z,9.15
2022-11-26T17:13:29.591Z,8.70
2022-11-26T17:15:01.509Z,8.25
2022-11-26T17:16:33.310Z,9.15
2022-11-26T17:18:07.590Z,9.18
2022-11-26T17:19:39.605Z,11.27
2022-11-26T17:21:11.430Z,7.35
2022-11-26T17:22:45.411Z,7.75
2022-11-26T17:24:19.337Z,7.78
2022-11-26T17:25:54.758Z,10.48
2022-11-26T17:27:26.875Z,10.38
2022-11-26T17:28:58.481Z,7.40
2022-11-26T17:30:30.449Z,13.25
2022-11-26T17:32:04.701Z,10.10
2022-11-26T17:33:36.724Z,10.07
2022-11-26T17:35:08.570Z,9.70
2022-11-26T17:36:40.210Z,11.43
2022-11-26T17:38:14.114Z,12.80
2022-11-26T17:39:45.794Z,13.13
2022-11-26T17:41:17.448Z,15.52
2022-11-26T17:42:49.753Z,13.05
2022-11-26T17:44:21.668Z,12.48
2022-11-26T17:46:01.615Z,10.18
2022-11-26T17:47:33.278Z,11.30
2022-11-26T17:49:04.952Z,13.60
2022-11-26T17:50:36.585Z,13.20
2022-11-26T17:52:08.263Z,13.75
2022-11-26T17:53:41.403Z,14.55
2022-11-26T17:55:13.543Z,14.25
2022-11-26T17:56:45.173Z,13.00
2022-11-26T17:58:16.812Z,14.50
2022-11-26T17:59:48.479Z,12.18
2022-11-26T18:01:23.209Z,14.60
2022-11-26T18:02:54.988Z,19.52
2022-11-26T18:04:29.036Z,13.75
2022-11-26T18:06:00.680Z,19.42
2022-11-26T18:07:32.359Z,15.60
2022-11-26T18:09:05.556Z,19.48
2022-11-26T18:10:39.178Z,17.15
2022-11-26T18:12:20.159Z,14.27
2022-11-26T18:13:54.883Z,12.85
2022-11-26T18:15:26.794Z,14.05
2022-11-26T18:16:58.466Z,15.55
2022-11-26T18:18:30.151Z,15.18
2022-11-26T18:20:01.834Z,14.25
2022-11-26T18:21:33.475Z,12.85
2022-11-26T18:23:05.080Z,14.68
2022-11-26T18:24:38.105Z,13.63
2022-11-26T18:26:14.358Z,12.68
2022-11-26T18:27:46.030Z,11.65
2022-11-26T18:29:17.638Z,15.02
2022-11-26T18:30:50.015Z,13.13
2022-11-26T18:32:21.802Z,12.63
2022-11-26T18:33:53.492Z,13.45
2022-11-26T18:35:25.108Z,16.55
2022-11-26T18:36:56.765Z,13.18
2022-11-26T18:38:31.259Z,13.90
2022-11-26T18:40:05.482Z,11.85
2022-11-26T18:41:37.163Z,13.20
2022-11-26T18:43:08.809Z,14.25
2022-11-26T18:44:40.417Z,14.00
2022-11-26T18:46:16.984Z,12.18
2022-11-26T18:47:48.687Z,13.15
2022-11-26T18:49:20.523Z,11.25
2022-11-26T18:50:56.213Z,12.23
2022-11-26T18:52:27.820Z,12.77
2022-11-26T18:53:59.438Z,12.13
2022-11-26T18:55:32.428Z,13.93
2022-11-26T18:57:04.025Z,13.60
2022-11-26T18:58:35.643Z,12.20
2022-11-26T19:00:09.083Z,11.75
2022-11-26T19:01:40.889Z,12.05
2022-11-26T19:03:12.619Z,11.90
2022-11-26T19:04:44.187Z,12.73
2022-11-26T19:06:16.710Z,12.95
2022-11-26T19:07:48.396Z,12.68
2022-11-26T19:09:20.462Z,11.93
2022-11-26T19:10:53.437Z,14.75
2022-11-26T19:12:25.062Z,21.58
2022-11-26T19:13:57.082Z,23.88
2022-11-26T19:15:28.738Z,22.38
2022-11-26T19:17:00.667Z,15.15
2022-11-26T19:18:32.363Z,19.08
2022-11-26T19:20:05.208Z,27.10
2022-11-26T19:21:36.894Z,20.25
2022-11-26T19:23:09.057Z,20.92
2022-11-26T19:24:40.661Z,19.52
2022-11-26T19:26:13.707Z,17.55
2022-11-26T19:27:45.357Z,16.92
2022-11-26T19:29:17.003Z,16.73
2022-11-26T19:30:58.080Z,19.50
2022-11-26T19:32:29.779Z,21.80
2022-11-26T19:34:03.308Z,18.45
2022-11-26T19:35:38.330Z,18.55
2022-11-26T19:37:10.005Z,16.08
2022-11-26T19:38:41.604Z,14.93
2022-11-26T19:40:13.601Z,15.68
2022-11-26T19:41:46.552Z,14.35
2022-11-26T19:43:18.158Z,13.77
2022-11-26T19:44:49.770Z,17.27
2022-11-26T19:46:22.254Z,13.13
2022-11-26T19:47:53.934Z,13.43
2022-11-26T19:49:25.663Z,12.38
2022-11-26T19:50:57.409Z,12.82
2022-11-26T19:52:29.303Z,10.80
2022-11-26T19:54:00.929Z,10.38
2022-11-26T19:55:32.822Z,10.43
2022-11-26T19:57:07.113Z,10.95
2022-11-26T19:58:38.730Z,10.95
2022-11-26T20:00:11.665Z,13.55
2022-11-26T20:01:43.311Z,15.00
2022-11-26T20:03:14.946Z,13.60
2022-11-26T20:04:46.577Z,14.02
2022-11-26T20:06:19.008Z,14.57
2022-11-26T20:07:50.756Z,11.40
2022-11-26T20:09:22.916Z,11.70
2022-11-26T20:11:00.058Z,14.30
2022-11-26T20:12:32.972Z,11.10
2022-11-26T20:14:04.624Z,11.63
2022-11-26T20:15:37.638Z,12.90
2022-11-26T20:17:09.438Z,11.80
2022-11-26T20:18:41.277Z,13.00